YM Ubiquity — BLHM — position and weather

sailwx.info

Track history (hours):
 
Tides and Currents Weather Stations Pressure Air Temp Water Temp Dewpoint Dewpoint Depression Visibility Wind Speed Wind Dir Waves Ship Positions

YM Ubiquity

Last reported at 2018-Apr-12 12:33 UTC. Time now 2018-Apr-21 00:19 UTC.
Position N 41°41' E 141°21'.
Warning: this ship's position is 8 days out of date.

Length 333 m; draft 10.7 m.

Type: Ship (hazmat cat C). MMSI: 416467000.

Date/timePositionNaut miles runAvg speedWind from/ knotsBaromVisibWave heightAir tempDewpointWater temp
2018-Apr-12 12:33N 41°41' E 141°21'220.2
2018-Apr-12 12:27N 41°41' E 141°18'920.1
2018-Apr-12 12:00N 41°39' E 141°07'1223.6
2018-Apr-12 11:30N 41°36' E 140°51'1123.1
2018-Apr-12 11:00N 41°30' E 140°39'1223.4
2018-Apr-12 10:30N 41°24' E 140°26'  
2018-Apr-09 16:58N 33°30' E 127°51'1 1.2
2018-Apr-09 16:29N 33°30' E 127°50'2 3.5
2018-Apr-09 16:00N 33°29' E 127°49'611.8
2018-Apr-09 15:27N 33°24' E 127°43'713.1
2018-Apr-09 14:56N 33°19' E 127°38'613.1
2018-Apr-09 14:29N 33°15' E 127°32'613.2
2018-Apr-09 14:00N 33°11' E 127°27'713.3
2018-Apr-09 13:30N 33°06' E 127°22'713.4
2018-Apr-09 13:00N 33°01' E 127°16'1513.1
2018-Apr-09 11:51N 32°52' E 127°01'412.8
2018-Apr-09 11:30N 32°50' E 126°57'812.6
2018-Apr-09 10:52N 32°46' E 126°49'512.7
2018-Apr-09 10:28N 32°43' E 126°44'2612.8
2018-Apr-09 08:29N 32°29' E 126°19'12812.9
2018-Apr-08 22:34N 31°16' E 124°15'513.6
2018-Apr-08 22:12N 31°14' E 124°10'414.2
2018-Apr-08 21:54N 31°12' E 124°06'2013.4
2018-Apr-08 20:24N 30°60' E 123°46'613.6
2018-Apr-08 19:58N 30°57' E 123°41'1532.6
2018-Apr-08 19:30N 30°48' E 123°26'912.5
2018-Apr-08 18:46N 30°43' E 123°17'3 9.1
2018-Apr-08 18:25N 30°41' E 123°13'3 6.2
2018-Apr-08 17:53N 30°40' E 123°10'3 7.1
2018-Apr-08 17:30N 30°39' E 123°07'611.3
2018-Apr-08 16:59N 30°37' E 123°01'612.9
2018-Apr-08 16:29N 30°36' E 122°54'1113.1
2018-Apr-08 15:39N 30°33' E 122°41'412.7
2018-Apr-08 15:21N 30°32' E 122°37'1013.0
2018-Apr-08 14:35N 30°31' E 122°25'413.4
2018-Apr-08 14:19N 30°32' E 122°21'412.6
2018-Apr-08 14:00N 30°33' E 122°17'713.8
2018-Apr-08 13:30N 30°34' E 122°09'4 6.8
2018-Apr-08 12:53N 30°36' E 122°05'0 0.0
2018-Apr-08 03:46N 30°36' E 122°05'0 0.0
2018-Apr-08 02:31N 30°36' E 122°05'0 0.0
2018-Apr-08 02:10N 30°36' E 122°05'0 0.0
2018-Apr-08 01:58N 30°36' E 122°05'0 0.0
2018-Apr-08 01:26N 30°36' E 122°05'0 0.0
2018-Apr-08 01:00N 30°36' E 122°05'0 0.0
2018-Apr-07 19:00N 30°36' E 122°05'0 0.2
2018-Apr-07 17:37N 30°36' E 122°05'1 3.5
2018-Apr-07 17:19N 30°36' E 122°06'2 4.6
2018-Apr-07 16:58N 30°35' E 122°07'816.0
2018-Apr-07 16:29N 30°33' E 122°16'  
2018-Apr-03 06:13N 36°00' E 120°24'414.3
2018-Apr-03 05:58N 36°01' E 120°20'4 8.8
2018-Apr-03 05:31N 36°02' E 120°15'3 5.6
2018-Apr-03 04:57N 36°00' E 120°12'0 0.0
2018-Apr-03 04:27N 36°00' E 120°12'0 0.0
2018-Apr-03 03:57N 36°00' E 120°12'0 0.0
2018-Apr-03 03:25N 36°00' E 120°12'0 0.0
2018-Apr-03 02:53N 36°00' E 120°12'0 0.0
2018-Apr-03 02:18N 36°00' E 120°12'0 0.0
2018-Apr-03 01:45N 36°00' E 120°12'0 0.0
2018-Apr-03 01:30N 36°00' E 120°12'0 0.0
2018-Apr-03 00:09N 36°00' E 120°12'0 0.0
2018-Apr-02 23:54N 36°00' E 120°12'0 0.0
2018-Apr-02 22:55N 36°00' E 120°12'0 0.0
2018-Apr-02 22:15N 36°00' E 120°12'0 0.0
2018-Apr-02 21:57N 36°00' E 120°12'0 0.0
2018-Apr-02 21:24N 36°00' E 120°12'0 0.0
2018-Apr-02 20:10N 36°00' E 120°12'0 0.0
2018-Apr-02 19:51N 36°00' E 120°12'0 0.0
2018-Apr-02 17:12N 36°00' E 120°12'0 0.0
2018-Apr-02 16:23N 36°00' E 120°12'0 0.0
2018-Apr-02 15:25N 36°00' E 120°12'0 0.0
2018-Apr-02 14:24N 36°00' E 120°12'0 0.1
2018-Apr-02 13:51N 36°00' E 120°12'3 5.9
2018-Apr-02 13:21N 36°02' E 120°15'6 8.3
2018-Apr-02 12:36N 36°01' E 120°23'  
Track history (hours):
 
Tides and Currents Weather Stations Pressure Air Temp Water Temp Dewpoint Dewpoint Depression Visibility Wind Speed Wind Dir Waves Ship Positions

YM Ubiquity

Last reported at 2018-Apr-12 12:33 UTC. Time now 2018-Apr-21 00:19 UTC.
Position N 41°41' E 141°21'.
Warning: this ship's position is 8 days out of date.

Length 333 m; draft 10.7 m.

Type: Ship (hazmat cat C). MMSI: 416467000.

Date/timePositionNaut miles runAvg speedWind from/ knotsBaromVisibWave heightAir tempDewpointWater temp
2018-Apr-12 12:33N 41°41' E 141°21'220.2
2018-Apr-12 12:27N 41°41' E 141°18'920.1
2018-Apr-12 12:00N 41°39' E 141°07'1223.6
2018-Apr-12 11:30N 41°36' E 140°51'1123.1
2018-Apr-12 11:00N 41°30' E 140°39'1223.4
2018-Apr-12 10:30N 41°24' E 140°26'  
2018-Apr-09 16:58N 33°30' E 127°51'1 1.2
2018-Apr-09 16:29N 33°30' E 127°50'2 3.5
2018-Apr-09 16:00N 33°29' E 127°49'611.8
2018-Apr-09 15:27N 33°24' E 127°43'713.1
2018-Apr-09 14:56N 33°19' E 127°38'613.1
2018-Apr-09 14:29N 33°15' E 127°32'613.2
2018-Apr-09 14:00N 33°11' E 127°27'713.3
2018-Apr-09 13:30N 33°06' E 127°22'713.4
2018-Apr-09 13:00N 33°01' E 127°16'1513.1
2018-Apr-09 11:51N 32°52' E 127°01'412.8
2018-Apr-09 11:30N 32°50' E 126°57'812.6
2018-Apr-09 10:52N 32°46' E 126°49'512.7
2018-Apr-09 10:28N 32°43' E 126°44'2612.8
2018-Apr-09 08:29N 32°29' E 126°19'12812.9
2018-Apr-08 22:34N 31°16' E 124°15'513.6
2018-Apr-08 22:12N 31°14' E 124°10'414.2
2018-Apr-08 21:54N 31°12' E 124°06'2013.4
2018-Apr-08 20:24N 30°60' E 123°46'613.6
2018-Apr-08 19:58N 30°57' E 123°41'1532.6
2018-Apr-08 19:30N 30°48' E 123°26'912.5
2018-Apr-08 18:46N 30°43' E 123°17'3 9.1
2018-Apr-08 18:25N 30°41' E 123°13'3 6.2
2018-Apr-08 17:53N 30°40' E 123°10'3 7.1
2018-Apr-08 17:30N 30°39' E 123°07'611.3
2018-Apr-08 16:59N 30°37' E 123°01'612.9
2018-Apr-08 16:29N 30°36' E 122°54'1113.1
2018-Apr-08 15:39N 30°33' E 122°41'412.7
2018-Apr-08 15:21N 30°32' E 122°37'1013.0
2018-Apr-08 14:35N 30°31' E 122°25'413.4
2018-Apr-08 14:19N 30°32' E 122°21'412.6
2018-Apr-08 14:00N 30°33' E 122°17'713.8
2018-Apr-08 13:30N 30°34' E 122°09'4 6.8
2018-Apr-08 12:53N 30°36' E 122°05'0 0.0
2018-Apr-08 03:46N 30°36' E 122°05'0 0.0
2018-Apr-08 02:31N 30°36' E 122°05'0 0.0
2018-Apr-08 02:10N 30°36' E 122°05'0 0.0
2018-Apr-08 01:58N 30°36' E 122°05'0 0.0
2018-Apr-08 01:26N 30°36' E 122°05'0 0.0
2018-Apr-08 01:00N 30°36' E 122°05'0 0.0
2018-Apr-07 19:00N 30°36' E 122°05'0 0.2
2018-Apr-07 17:37N 30°36' E 122°05'1 3.5
2018-Apr-07 17:19N 30°36' E 122°06'2 4.6
2018-Apr-07 16:58N 30°35' E 122°07'816.0
2018-Apr-07 16:29N 30°33' E 122°16'  
2018-Apr-03 06:13N 36°00' E 120°24'414.3
2018-Apr-03 05:58N 36°01' E 120°20'4 8.8
2018-Apr-03 05:31N 36°02' E 120°15'3 5.6
2018-Apr-03 04:57N 36°00' E 120°12'0 0.0
2018-Apr-03 04:27N 36°00' E 120°12'0 0.0
2018-Apr-03 03:57N 36°00' E 120°12'0 0.0
2018-Apr-03 03:25N 36°00' E 120°12'0 0.0
2018-Apr-03 02:53N 36°00' E 120°12'0 0.0
2018-Apr-03 02:18N 36°00' E 120°12'0 0.0
2018-Apr-03 01:45N 36°00' E 120°12'0 0.0
2018-Apr-03 01:30N 36°00' E 120°12'0 0.0
2018-Apr-03 00:09N 36°00' E 120°12'0 0.0
2018-Apr-02 23:54N 36°00' E 120°12'0 0.0
2018-Apr-02 22:55N 36°00' E 120°12'0 0.0
2018-Apr-02 22:15N 36°00' E 120°12'0 0.0
2018-Apr-02 21:57N 36°00' E 120°12'0 0.0
2018-Apr-02 21:24N 36°00' E 120°12'0 0.0
2018-Apr-02 20:10N 36°00' E 120°12'0 0.0
2018-Apr-02 19:51N 36°00' E 120°12'0 0.0
2018-Apr-02 17:12N 36°00' E 120°12'0 0.0
2018-Apr-02 16:23N 36°00' E 120°12'0 0.0
2018-Apr-02 15:25N 36°00' E 120°12'0 0.0
2018-Apr-02 14:24N 36°00' E 120°12'0 0.1
2018-Apr-02 13:51N 36°00' E 120°12'3 5.9
2018-Apr-02 13:21N 36°02' E 120°15'6 8.3
2018-Apr-02 12:36N 36°01' E 120°23'  

Dump ship's entire track history